createdAt,value
2023-03-26T00:01:32.445Z,86.50
2023-03-26T00:06:36.814Z,86.40
2023-03-26T00:11:40.421Z,86.50
2023-03-26T00:16:42.601Z,86.30
2023-03-26T00:21:44.840Z,86.40
2023-03-26T00:26:48.555Z,86.40
2023-03-26T00:31:51.050Z,86.50
2023-03-26T00:36:53.176Z,86.40
2023-03-26T00:41:56.702Z,86.40
2023-03-26T00:46:58.808Z,87.30
2023-03-26T00:52:01.000Z,86.50
2023-03-26T00:57:07.267Z,86.40
2023-03-26T01:02:13.712Z,86.40
2023-03-26T01:07:18.398Z,86.20
2023-03-26T01:12:25.824Z,86.00
2023-03-26T01:17:28.917Z,85.80
2023-03-26T01:22:31.096Z,85.80
2023-03-26T01:27:40.356Z,85.40
2023-03-26T01:32:51.692Z,85.20
2023-03-26T01:38:06.683Z,84.90
2023-03-26T01:43:17.931Z,84.90
2023-03-26T01:48:20.213Z,84.80
2023-03-26T01:53:22.492Z,84.90
2023-03-26T01:58:34.796Z,84.90
2023-03-26T02:03:42.455Z,84.90
2023-03-26T02:08:51.431Z,84.90
2023-03-26T02:13:55.406Z,84.80
2023-03-26T02:18:57.595Z,84.70
2023-03-26T02:24:00.111Z,84.70
2023-03-26T02:29:04.198Z,84.50
2023-03-26T02:34:06.410Z,84.30
2023-03-26T02:39:08.606Z,84.40
2023-03-26T02:44:12.229Z,84.40
2023-03-26T02:49:14.286Z,84.30
2023-03-26T02:54:16.438Z,84.40
2023-03-26T02:59:19.936Z,84.50
2023-03-26T03:04:22.089Z,84.50
2023-03-26T03:09:24.931Z,84.50
2023-03-26T03:19:29.651Z,84.40
2023-03-26T03:24:32.020Z,84.30
2023-03-26T03:29:34.154Z,84.30
2023-03-26T03:34:37.949Z,84.30
2023-03-26T03:39:43.262Z,84.20
2023-03-26T03:44:45.433Z,84.20
2023-03-26T03:49:49.167Z,84.20
2023-03-26T03:54:51.345Z,84.10
2023-03-26T03:59:53.669Z,84.10
2023-03-26T04:04:57.655Z,84.20
2023-03-26T04:10:00.333Z,84.10
2023-03-26T04:15:04.203Z,84.00
2023-03-26T04:20:09.316Z,84.00
2023-03-26T04:25:12.922Z,84.00
2023-03-26T04:30:18.770Z,83.90
2023-03-26T04:35:22.432Z,83.70
2023-03-26T04:40:24.519Z,83.60
2023-03-26T04:45:26.626Z,83.60
2023-03-26T04:50:30.353Z,83.50
2023-03-26T04:55:39.513Z,83.20
2023-03-26T05:00:42.331Z,83.10
2023-03-26T05:05:45.876Z,83.10
2023-03-26T05:10:47.961Z,83.10
2023-03-26T05:15:50.243Z,82.90
2023-03-26T05:20:54.140Z,82.80
2023-03-26T05:25:56.396Z,82.70
2023-03-26T05:30:58.532Z,82.50
2023-03-26T05:36:04.053Z,82.40
2023-03-26T05:41:08.821Z,82.50
2023-03-26T05:46:11.499Z,82.50
2023-03-26T05:51:15.343Z,82.60
2023-03-26T05:56:17.388Z,82.60
2023-03-26T06:01:19.504Z,82.60
2023-03-26T06:06:23.039Z,82.50
2023-03-26T06:11:25.185Z,83.10
2023-03-26T06:16:28.232Z,82.10
2023-03-26T06:21:32.283Z,82.00
2023-03-26T06:26:35.602Z,82.00
2023-03-26T06:31:37.821Z,82.10
2023-03-26T06:36:41.363Z,82.10
2023-03-26T06:41:43.463Z,82.10
2023-03-26T06:46:45.620Z,82.10
2023-03-26T06:51:49.331Z,82.10
2023-03-26T06:56:51.570Z,82.00
2023-03-26T07:01:53.707Z,81.90
2023-03-26T07:06:57.211Z,82.00
2023-03-26T07:11:59.477Z,81.70
2023-03-26T07:17:01.597Z,81.60
2023-03-26T07:22:05.638Z,81.50
2023-03-26T07:27:17.694Z,82.10
2023-03-26T07:32:26.823Z,81.80
2023-03-26T07:37:42.023Z,80.00
2023-03-26T07:42:57.596Z,78.30
2023-03-26T07:48:00.759Z,77.90
2023-03-26T07:53:05.106Z,77.70
2023-03-26T07:58:23.401Z,76.70
2023-03-26T08:03:39.580Z,75.40
2023-03-26T08:08:50.997Z,75.00
2023-03-26T08:14:04.035Z,75.10
2023-03-26T08:19:24.134Z,75.30
2023-03-26T08:24:36.231Z,74.10
2023-03-26T08:29:47.073Z,74.10
2023-03-26T08:34:49.229Z,74.00
2023-03-26T08:39:52.782Z,74.10
2023-03-26T08:45:28.740Z,74.20
2023-03-26T08:51:09.443Z,72.00
2023-03-26T08:56:23.113Z,72.20
2023-03-26T09:01:57.077Z,73.20
2023-03-26T09:07:29.269Z,71.60
2023-03-26T09:13:06.374Z,72.30
2023-03-26T09:18:50.887Z,72.10
2023-03-26T09:24:24.438Z,72.80
2023-03-26T09:30:03.255Z,73.30
2023-03-26T09:35:17.408Z,71.90
2023-03-26T09:40:21.686Z,72.30
2023-03-26T09:45:44.918Z,72.50
2023-03-26T09:51:05.236Z,69.10
2023-03-26T09:56:23.906Z,69.90
2023-03-26T10:01:35.963Z,69.50
2023-03-26T10:06:48.498Z,68.70
2023-03-26T10:12:06.673Z,68.30
2023-03-26T10:17:38.951Z,67.10
2023-03-26T10:22:52.602Z,65.00
2023-03-26T10:28:09.549Z,69.00
2023-03-26T10:33:25.571Z,67.10
2023-03-26T10:38:46.144Z,65.80
2023-03-26T10:44:08.541Z,64.20
2023-03-26T10:49:40.709Z,62.90
2023-03-26T10:54:53.968Z,62.10
2023-03-26T11:00:01.530Z,63.60
2023-03-26T11:05:28.187Z,63.90
2023-03-26T11:10:39.912Z,62.30
2023-03-26T11:15:48.728Z,66.00
2023-03-26T11:21:19.659Z,63.50
2023-03-26T11:26:29.367Z,62.60
2023-03-26T11:31:44.511Z,64.10
2023-03-26T11:36:51.493Z,65.30
2023-03-26T11:42:04.022Z,62.90
2023-03-26T11:47:09.453Z,61.40
2023-03-26T11:52:12.086Z,60.00
2023-03-26T11:57:20.115Z,59.80
2023-03-26T12:02:26.945Z,59.00
2023-03-26T12:07:32.463Z,59.70
2023-03-26T12:12:39.882Z,59.30
2023-03-26T12:17:42.576Z,58.50
2023-03-26T12:22:46.242Z,58.30
2023-03-26T12:27:57.534Z,59.40
2023-03-26T12:33:02.382Z,59.60
2023-03-26T12:38:24.242Z,59.00
2023-03-26T12:44:48.007Z,56.00
2023-03-26T12:48:55.322Z,56.60
2023-03-26T12:54:14.304Z,57.40
2023-03-26T12:59:33.582Z,55.90
2023-03-26T13:05:05.564Z,55.10
2023-03-26T13:10:31.447Z,55.00
2023-03-26T13:15:38.855Z,54.90
2023-03-26T13:20:51.733Z,56.00
2023-03-26T13:26:04.607Z,55.30
2023-03-26T13:31:15.130Z,55.40
2023-03-26T13:36:24.198Z,55.60
2023-03-26T13:41:39.134Z,55.40
2023-03-26T13:46:47.048Z,54.70
2023-03-26T13:51:53.867Z,55.30
2023-03-26T13:57:05.282Z,55.50
2023-03-26T14:02:18.250Z,54.90
2023-03-26T14:07:25.463Z,54.90
2023-03-26T14:12:42.100Z,55.10
2023-03-26T14:17:52.075Z,57.00
2023-03-26T14:23:38.837Z,56.20
2023-03-26T14:29:07.080Z,54.90
2023-03-26T14:34:23.994Z,54.90
2023-03-26T14:39:48.974Z,54.50
2023-03-26T14:45:27.903Z,55.00
2023-03-26T14:50:48.286Z,54.60
2023-03-26T14:56:20.754Z,55.40
2023-03-26T15:01:26.525Z,55.40
2023-03-26T15:07:13.645Z,56.30
2023-03-26T15:12:32.931Z,55.00
2023-03-26T15:18:00.627Z,56.00
2023-03-26T15:23:53.534Z,56.30
2023-03-26T15:29:44.046Z,56.20
2023-03-26T15:35:24.873Z,56.50
2023-03-26T15:40:45.396Z,56.50
2023-03-26T15:45:51.872Z,56.40
2023-03-26T15:51:03.687Z,56.70
2023-03-26T15:56:22.844Z,56.50
2023-03-26T16:01:37.896Z,56.20
2023-03-26T16:06:49.241Z,56.50
2023-03-26T16:11:57.191Z,56.50
2023-03-26T16:17:03.127Z,56.40
2023-03-26T16:22:07.599Z,56.70
2023-03-26T16:27:31.248Z,57.10
2023-03-26T16:32:36.240Z,57.20
2023-03-26T16:37:42.020Z,57.60
2023-03-26T16:42:49.187Z,57.70
2023-03-26T16:48:01.951Z,57.60
2023-03-26T16:53:17.205Z,57.80
2023-03-26T16:58:30.959Z,57.80
2023-03-26T17:03:43.684Z,57.90
2023-03-26T17:08:54.245Z,58.30
2023-03-26T17:14:10.782Z,59.10
2023-03-26T17:19:28.602Z,58.40
2023-03-26T17:24:42.842Z,58.60
2023-03-26T17:30:01.271Z,58.70
2023-03-26T17:35:08.637Z,58.90
2023-03-26T17:40:45.309Z,59.10
2023-03-26T17:46:02.827Z,59.10
2023-03-26T17:51:28.504Z,59.30
2023-03-26T17:56:31.950Z,59.60
2023-03-26T18:01:37.152Z,59.70
2023-03-26T18:07:00.488Z,59.90
2023-03-26T18:12:21.879Z,60.10
2023-03-26T18:17:25.717Z,60.50
2023-03-26T18:22:31.515Z,60.80
2023-03-26T18:27:39.218Z,61.20
2023-03-26T18:32:50.975Z,61.50
2023-03-26T18:37:58.091Z,62.70
2023-03-26T18:43:00.465Z,62.00
2023-03-26T18:48:05.686Z,62.00
2023-03-26T18:53:16.689Z,62.10
2023-03-26T18:58:24.663Z,62.30
2023-03-26T19:03:29.337Z,62.40
2023-03-26T19:08:33.198Z,62.40
2023-03-26T19:13:37.781Z,62.50
2023-03-26T19:18:41.548Z,62.60
2023-03-26T19:23:48.296Z,62.70
2023-03-26T19:28:52.168Z,62.80
2023-03-26T19:33:57.131Z,62.90
2023-03-26T19:39:12.910Z,63.10
2023-03-26T19:44:21.171Z,63.30
2023-03-26T19:49:28.574Z,63.50
2023-03-26T19:54:32.601Z,63.70
2023-03-26T19:59:35.239Z,64.00
2023-03-26T20:04:38.780Z,64.00
2023-03-26T20:09:48.878Z,64.20
2023-03-26T20:14:55.318Z,64.50
2023-03-26T20:19:57.852Z,64.40
2023-03-26T20:25:01.607Z,64.40
2023-03-26T20:30:05.216Z,64.60
2023-03-26T20:35:16.570Z,64.60
2023-03-26T20:40:20.496Z,64.60
2023-03-26T20:45:24.687Z,64.60
2023-03-26T20:50:27.890Z,64.50
2023-03-26T20:55:32.928Z,64.60
2023-03-26T21:00:35.787Z,64.60
2023-03-26T21:05:37.951Z,64.70
2023-03-26T21:10:42.566Z,64.80
2023-03-26T21:15:45.100Z,65.00
2023-03-26T21:20:59.897Z,65.10
2023-03-26T21:26:11.288Z,65.40
2023-03-26T21:31:16.100Z,65.50
2023-03-26T21:36:19.950Z,65.60
2023-03-26T21:41:32.420Z,65.80
2023-03-26T21:46:35.555Z,66.20
2023-03-26T21:51:38.242Z,66.10
2023-03-26T21:56:49.504Z,66.20
2023-03-26T22:02:00.578Z,66.40
2023-03-26T22:07:09.982Z,66.30
2023-03-26T22:12:13.609Z,66.30
2023-03-26T22:17:15.757Z,67.10
2023-03-26T22:22:17.901Z,66.20
2023-03-26T22:27:21.496Z,66.10
2023-03-26T22:32:23.654Z,66.30
2023-03-26T22:37:25.702Z,66.40
2023-03-26T22:42:29.369Z,66.50
2023-03-26T22:47:31.632Z,66.60
2023-03-26T22:52:36.089Z,66.70
2023-03-26T22:57:39.974Z,66.80
2023-03-26T23:02:42.366Z,67.10
2023-03-26T23:07:44.797Z,67.30
2023-03-26T23:12:48.353Z,67.30
2023-03-26T23:17:54.905Z,67.50
2023-03-26T23:22:57.345Z,67.70
2023-03-26T23:28:00.981Z,68.00
2023-03-26T23:33:03.129Z,67.60
2023-03-26T23:38:05.364Z,68.00
2023-03-26T23:43:08.826Z,68.10
2023-03-26T23:48:11.404Z,68.30
2023-03-26T23:53:13.487Z,68.20
2023-03-26T23:58:18.132Z,68.20
